createdAt,value
2018-04-22T00:00:39.754Z,5.33
2018-04-22T00:03:07.442Z,4.53
2018-04-22T00:05:35.046Z,5.47
2018-04-22T00:08:02.659Z,4.77
2018-04-22T00:10:30.321Z,4.80
2018-04-22T00:12:57.939Z,5.03
2018-04-22T00:15:25.668Z,4.90
2018-04-22T00:17:53.286Z,4.37
2018-04-22T00:20:20.940Z,5.10
2018-04-22T00:22:48.551Z,4.93
2018-04-22T00:25:16.198Z,7.83
2018-04-22T00:27:43.809Z,5.50
2018-04-22T00:30:11.459Z,5.60
2018-04-22T00:32:39.083Z,5.13
2018-04-22T00:35:06.745Z,5.03
2018-04-22T00:37:34.350Z,5.10
2018-04-22T00:40:02.018Z,4.50
2018-04-22T00:42:29.659Z,4.80
2018-04-22T00:44:57.311Z,4.67
2018-04-22T00:47:24.930Z,3.90
2018-04-22T00:49:52.599Z,5.40
2018-04-22T00:52:20.222Z,4.53
2018-04-22T00:54:47.873Z,4.43
2018-04-22T00:57:15.486Z,4.87
2018-04-22T00:59:43.158Z,4.73
2018-04-22T01:02:10.803Z,4.53
2018-04-22T01:04:38.467Z,4.00
2018-04-22T01:07:06.079Z,4.20
2018-04-22T01:09:33.738Z,4.77
2018-04-22T01:12:01.394Z,5.07
2018-04-22T01:14:29.044Z,5.23
2018-04-22T01:16:56.650Z,4.60
2018-04-22T01:19:24.386Z,5.40
2018-04-22T01:21:51.990Z,4.77
2018-04-22T01:24:19.651Z,4.37
2018-04-22T01:26:47.258Z,5.20
2018-04-22T01:29:14.931Z,4.27
2018-04-22T01:31:42.541Z,6.13
2018-04-22T01:34:10.206Z,5.43
2018-04-22T01:36:37.834Z,4.93
2018-04-22T01:39:06.399Z,4.50
2018-04-22T01:41:34.003Z,5.07
2018-04-22T01:44:01.651Z,5.73
2018-04-22T01:46:29.259Z,4.43
2018-04-22T01:48:56.910Z,5.90
2018-04-22T01:51:24.531Z,4.60
2018-04-22T01:53:52.186Z,5.80
2018-04-22T01:56:19.795Z,6.53
2018-04-22T01:58:47.464Z,4.87
2018-04-22T02:01:15.074Z,5.70
2018-04-22T02:03:42.741Z,5.80
2018-04-22T02:06:10.384Z,5.83
2018-04-22T02:08:38.062Z,5.30
2018-04-22T02:11:05.671Z,5.40
2018-04-22T02:13:33.338Z,4.73
2018-04-22T02:16:01.011Z,4.93
2018-04-22T02:18:28.612Z,6.30
2018-04-22T02:20:56.262Z,5.97
2018-04-22T02:23:23.887Z,5.37
2018-04-22T02:25:51.560Z,5.00
2018-04-22T02:28:19.171Z,5.57
2018-04-22T02:30:46.819Z,5.27
2018-04-22T02:33:14.427Z,5.43
2018-04-22T02:35:42.078Z,5.17
2018-04-22T02:38:09.702Z,6.37
2018-04-22T02:40:37.380Z,5.30
2018-04-22T02:43:04.991Z,5.97
2018-04-22T02:45:32.642Z,5.43
2018-04-22T02:48:00.261Z,6.73
2018-04-22T02:50:27.913Z,5.90
2018-04-22T02:52:55.523Z,5.13
2018-04-22T02:55:23.171Z,4.43
2018-04-22T02:57:50.778Z,5.27
2018-04-22T03:00:18.487Z,4.53
2018-04-22T03:02:46.099Z,5.33
2018-04-22T03:05:13.766Z,5.10
2018-04-22T03:07:41.380Z,4.67
2018-04-22T03:10:09.030Z,5.33
2018-04-22T03:12:36.651Z,5.50
2018-04-22T03:15:04.299Z,6.83
2018-04-22T03:17:31.924Z,5.07
2018-04-22T03:19:59.646Z,4.87
2018-04-22T03:22:27.258Z,5.97
2018-04-22T03:24:54.931Z,5.27
2018-04-22T03:27:22.554Z,7.27
2018-04-22T03:29:50.219Z,5.10
2018-04-22T03:32:17.838Z,5.10
2018-04-22T03:34:45.495Z,5.23
2018-04-22T03:37:13.108Z,4.90
2018-04-22T03:39:40.762Z,4.87
2018-04-22T03:42:08.379Z,5.50
2018-04-22T03:44:36.042Z,5.53
2018-04-22T03:47:03.666Z,4.67
2018-04-22T03:49:31.321Z,5.07
2018-04-22T03:51:58.934Z,5.60
2018-04-22T03:54:26.603Z,4.87
2018-04-22T03:56:54.220Z,5.83
2018-04-22T03:59:21.878Z,4.60
2018-04-22T04:01:49.523Z,4.60
2018-04-22T04:04:17.192Z,5.47
2018-04-22T04:06:44.808Z,5.53
2018-04-22T04:09:12.470Z,6.50
2018-04-22T04:11:40.083Z,5.70
2018-04-22T04:14:07.707Z,6.10
2018-04-22T04:16:35.390Z,5.40
2018-04-22T04:19:14.864Z,6.90
2018-04-22T04:21:54.293Z,5.27
2018-04-22T04:27:44.531Z,4.63
2018-04-22T04:30:12.190Z,6.93
2018-04-22T04:32:39.805Z,5.50
2018-04-22T04:35:07.479Z,5.40
2018-04-22T04:37:35.148Z,4.80
2018-04-22T04:40:02.821Z,6.90
2018-04-22T04:42:30.470Z,4.70
2018-04-22T04:44:58.336Z,6.20
2018-04-22T04:47:26.050Z,5.23
2018-04-22T04:49:53.866Z,5.47
2018-04-22T04:52:21.528Z,5.87
2018-04-22T04:54:49.398Z,6.30
2018-04-22T04:57:17.158Z,5.20
2018-04-22T04:59:45.025Z,6.03
2018-04-22T05:02:12.894Z,6.50
2018-04-22T05:04:40.658Z,5.20
2018-04-22T05:07:08.428Z,7.07
2018-04-22T05:09:36.085Z,5.70
2018-04-22T05:12:03.913Z,4.93
2018-04-22T05:14:31.715Z,5.37
2018-04-22T05:16:59.419Z,5.00
2018-04-22T05:19:27.038Z,5.43
2018-04-22T05:21:54.853Z,5.73
2018-04-22T05:24:22.629Z,6.20
2018-04-22T05:26:50.438Z,4.60
2018-04-22T05:29:18.275Z,4.90
2018-04-22T05:31:45.965Z,4.90
2018-04-22T05:34:13.730Z,5.33
2018-04-22T05:36:41.595Z,5.13
2018-04-22T05:39:09.368Z,4.97
2018-04-22T05:41:37.187Z,5.77
2018-04-22T05:44:04.991Z,5.70
2018-04-22T05:46:32.859Z,5.50
2018-04-22T05:49:00.656Z,6.23
2018-04-22T05:51:28.488Z,4.37
2018-04-22T05:53:56.256Z,5.70
2018-04-22T05:56:24.120Z,4.80
2018-04-22T05:58:51.831Z,5.57
2018-04-22T06:01:19.574Z,5.90
2018-04-22T06:03:47.320Z,5.60
2018-04-22T06:06:15.181Z,5.50
2018-04-22T06:08:43.407Z,5.40
2018-04-22T06:11:11.225Z,4.60
2018-04-22T06:13:38.936Z,5.60
2018-04-22T06:16:06.822Z,6.20
2018-04-22T06:18:34.524Z,5.10
2018-04-22T06:21:02.387Z,5.03
2018-04-22T06:23:30.117Z,5.70
2018-04-22T06:25:57.809Z,5.20
2018-04-22T06:28:25.438Z,6.07
2018-04-22T06:30:53.234Z,5.00
2018-04-22T06:33:20.958Z,6.17
2018-04-22T06:35:48.765Z,4.93
2018-04-22T06:38:16.453Z,5.63
2018-04-22T06:40:44.300Z,5.53
2018-04-22T06:43:11.953Z,6.07
2018-04-22T06:45:39.717Z,6.17
2018-04-22T06:48:07.483Z,7.47
2018-04-22T06:50:35.219Z,6.40
2018-04-22T06:53:02.954Z,6.40
2018-04-22T06:55:30.777Z,5.87
2018-04-22T06:57:58.540Z,5.97
2018-04-22T07:00:26.417Z,6.17
2018-04-22T07:02:54.173Z,7.10
2018-04-22T07:05:22.045Z,6.30
2018-04-22T07:07:49.757Z,7.03
2018-04-22T07:10:17.569Z,6.40
2018-04-22T07:12:45.401Z,5.97
2018-04-22T07:15:13.158Z,6.83
2018-04-22T07:17:40.979Z,6.73
2018-04-22T07:20:08.698Z,7.73
2018-04-22T07:22:36.433Z,7.47
2018-04-22T07:25:04.252Z,6.47
2018-04-22T07:27:31.968Z,7.30
2018-04-22T07:29:59.691Z,6.17
2018-04-22T07:32:27.359Z,6.60
2018-04-22T07:34:54.991Z,7.23
2018-04-22T07:37:22.674Z,6.20
2018-04-22T07:39:50.278Z,7.40
2018-04-22T07:42:17.952Z,9.87
2018-04-22T07:44:45.570Z,6.67
2018-04-22T07:47:13.221Z,7.53
2018-04-22T07:49:40.831Z,7.23
2018-04-22T07:52:08.498Z,5.77
2018-04-22T07:54:36.130Z,7.10
2018-04-22T07:57:03.799Z,8.23
2018-04-22T07:59:31.548Z,6.90
2018-04-22T08:01:59.199Z,8.30
2018-04-22T08:04:26.830Z,8.40
2018-04-22T08:06:54.479Z,7.80
2018-04-22T08:09:22.119Z,9.07
2018-04-22T08:11:49.786Z,7.17
2018-04-22T08:14:17.405Z,9.20
2018-04-22T08:16:45.065Z,9.13
2018-04-22T08:19:12.704Z,7.43
2018-04-22T08:21:40.379Z,8.70
2018-04-22T08:24:07.987Z,9.70
2018-04-22T08:26:35.648Z,8.13
2018-04-22T08:29:03.265Z,7.53
2018-04-22T08:31:30.930Z,7.93
2018-04-22T08:33:58.577Z,8.43
2018-04-22T08:36:26.248Z,8.80
2018-04-22T08:38:53.976Z,8.70
2018-04-22T08:41:21.639Z,8.37
2018-04-22T08:43:49.266Z,9.50
2018-04-22T08:46:16.952Z,8.10
2018-04-22T08:48:44.569Z,8.13
2018-04-22T08:51:12.233Z,8.53
2018-04-22T08:53:39.852Z,8.20
2018-04-22T08:56:07.500Z,8.40
2018-04-22T08:58:35.119Z,9.07
2018-04-22T09:01:02.762Z,9.30
2018-04-22T09:03:30.382Z,9.87
2018-04-22T09:05:58.034Z,11.23
2018-04-22T09:08:25.651Z,10.53
2018-04-22T09:10:53.385Z,10.23
2018-04-22T09:13:21.003Z,8.60
2018-04-22T09:15:48.650Z,9.50
2018-04-22T09:18:16.256Z,9.63
2018-04-22T09:20:43.885Z,9.47
2018-04-22T09:23:11.702Z,9.27
2018-04-22T09:25:39.317Z,9.50
2018-04-22T09:28:06.974Z,9.47
2018-04-22T09:30:34.586Z,9.70
2018-04-22T09:33:02.244Z,8.93
2018-04-22T09:35:29.879Z,9.97
2018-04-22T09:37:57.526Z,10.17
2018-04-22T09:40:25.134Z,9.50
2018-04-22T09:42:52.782Z,10.30
2018-04-22T09:45:20.412Z,8.40
2018-04-22T09:47:48.078Z,8.00
2018-04-22T09:50:15.696Z,9.70
2018-04-22T09:52:43.366Z,9.27
2018-04-22T09:55:10.986Z,8.80
2018-04-22T09:57:38.664Z,9.70
2018-04-22T10:00:06.295Z,10.40
2018-04-22T10:02:33.947Z,9.20
2018-04-22T10:05:07.263Z,8.47
2018-04-22T10:07:34.912Z,8.20
2018-04-22T10:10:02.537Z,8.80
2018-04-22T10:12:30.199Z,8.33
2018-04-22T10:14:58.050Z,7.70
2018-04-22T10:17:25.700Z,8.90
2018-04-22T10:19:53.323Z,9.33
2018-04-22T10:22:21.010Z,7.80
2018-04-22T10:24:48.623Z,7.83
2018-04-22T10:27:16.272Z,9.10
2018-04-22T10:29:43.880Z,9.97
2018-04-22T10:32:11.525Z,7.40
2018-04-22T10:34:39.157Z,9.43
2018-04-22T10:37:06.892Z,7.57
2018-04-22T10:39:34.511Z,7.47
2018-04-22T10:42:02.209Z,6.70
2018-04-22T10:44:29.822Z,8.20
2018-04-22T10:46:57.478Z,7.00
2018-04-22T10:49:25.095Z,7.10
2018-04-22T10:51:52.756Z,7.37
2018-04-22T10:54:20.376Z,8.90
2018-04-22T10:56:48.035Z,7.27
2018-04-22T10:59:15.658Z,6.87
2018-04-22T11:01:43.314Z,6.23
2018-04-22T11:04:10.943Z,7.83
2018-04-22T11:06:38.586Z,6.77
2018-04-22T11:09:06.229Z,8.00
2018-04-22T11:11:33.887Z,8.23
2018-04-22T11:14:01.522Z,6.50
2018-04-22T11:16:29.170Z,6.87
2018-04-22T11:18:56.783Z,5.77
2018-04-22T11:21:24.462Z,6.40
2018-04-22T11:23:52.084Z,6.50
2018-04-22T11:26:19.793Z,6.87
2018-04-22T11:28:47.401Z,6.00
2018-04-22T11:31:15.030Z,6.43
2018-04-22T11:33:42.696Z,6.27
2018-04-22T11:36:10.314Z,6.27
2018-04-22T11:38:37.977Z,5.03
2018-04-22T11:41:05.591Z,5.23
2018-04-22T11:43:33.239Z,6.13
2018-04-22T11:46:00.845Z,4.10
2018-04-22T11:48:28.504Z,4.60
2018-04-22T11:50:56.138Z,4.20
2018-04-22T11:53:23.784Z,4.43
2018-04-22T11:55:51.472Z,5.83
2018-04-22T11:58:19.118Z,4.70
2018-04-22T12:00:46.791Z,4.50
2018-04-22T12:03:14.445Z,5.40
2018-04-22T12:05:42.067Z,4.70
2018-04-22T12:08:09.719Z,5.00
2018-04-22T12:10:37.322Z,5.43
2018-04-22T12:13:04.970Z,4.00
2018-04-22T12:15:32.591Z,5.90
2018-04-22T12:18:00.256Z,4.97
2018-04-22T12:20:27.909Z,4.23
2018-04-22T12:22:55.582Z,5.03
2018-04-22T12:25:23.186Z,5.20
2018-04-22T12:27:50.847Z,4.67
2018-04-22T12:30:18.466Z,4.63
2018-04-22T12:32:46.127Z,4.50
2018-04-22T12:35:13.733Z,5.10
2018-04-22T12:37:41.377Z,4.00
2018-04-22T12:40:08.979Z,4.87
2018-04-22T12:45:20.642Z,4.70
2018-04-22T12:47:48.352Z,5.47
2018-04-22T12:50:15.962Z,4.90
2018-04-22T12:52:43.614Z,4.60
2018-04-22T12:55:11.263Z,3.77
2018-04-22T12:57:38.921Z,3.67
2018-04-22T13:00:06.592Z,3.67
2018-04-22T13:02:34.402Z,4.17
2018-04-22T13:05:02.011Z,4.63
2018-04-22T13:07:29.666Z,6.70
2018-04-22T13:09:57.287Z,3.40
2018-04-22T13:12:24.952Z,4.00
2018-04-22T13:14:52.578Z,3.40
2018-04-22T13:17:20.269Z,3.80
2018-04-22T13:19:47.890Z,4.37
2018-04-22T13:22:15.578Z,3.60
2018-04-22T13:24:43.186Z,3.47
2018-04-22T13:27:10.841Z,3.20
2018-04-22T13:29:38.442Z,3.00
2018-04-22T13:32:06.095Z,3.83
2018-04-22T13:34:33.698Z,3.73
2018-04-22T13:37:01.350Z,3.73
2018-04-22T13:39:28.999Z,2.17
2018-04-22T13:41:56.646Z,2.77
2018-04-22T13:44:24.243Z,4.70
2018-04-22T13:46:51.889Z,2.27
2018-04-22T13:49:19.511Z,6.60
2018-04-22T13:51:47.118Z,1.87
2018-04-22T13:54:14.779Z,2.13
2018-04-22T13:56:42.383Z,1.87
2018-04-22T13:59:10.044Z,1.90
2018-04-22T14:01:37.637Z,1.90
2018-04-22T14:04:05.322Z,1.97
2018-04-22T14:06:32.955Z,2.90
2018-04-22T14:09:00.605Z,2.20
2018-04-22T14:11:28.217Z,2.10
2018-04-22T14:13:55.878Z,1.73
2018-04-22T14:16:23.518Z,2.80
2018-04-22T14:18:51.167Z,2.07
2018-04-22T14:21:18.792Z,2.27
2018-04-22T14:23:46.434Z,2.70
2018-04-22T14:26:14.036Z,1.90
2018-04-22T14:28:41.682Z,1.70
2018-04-22T14:31:09.297Z,2.40
2018-04-22T14:33:36.934Z,2.30
2018-04-22T14:36:04.548Z,2.10
2018-04-22T14:38:32.189Z,2.30
2018-04-22T14:40:59.806Z,1.93
2018-04-22T14:43:27.459Z,2.47
2018-04-22T14:46:18.827Z,2.20
2018-04-22T14:48:58.420Z,2.30
2018-04-22T14:51:26.082Z,2.10
2018-04-22T14:53:53.949Z,2.30
2018-04-22T14:56:21.713Z,2.07
2018-04-22T14:58:49.454Z,2.40
2018-04-22T15:01:17.248Z,2.63
2018-04-22T15:03:45.073Z,2.10
2018-04-22T15:06:12.832Z,3.00
2018-04-22T15:08:40.642Z,2.83
2018-04-22T15:11:08.345Z,2.17
2018-04-22T15:13:36.010Z,2.87
2018-04-22T15:16:03.613Z,3.17
2018-04-22T15:18:31.283Z,2.40
2018-04-22T15:20:58.985Z,2.33
2018-04-22T15:23:26.726Z,3.03
2018-04-22T15:25:54.380Z,2.23
2018-04-22T15:28:22.144Z,2.70
2018-04-22T15:30:49.746Z,3.17
2018-04-22T15:33:17.398Z,2.60
2018-04-22T15:35:45.010Z,2.40
2018-04-22T15:38:12.663Z,3.63
2018-04-22T15:40:40.436Z,1.53
2018-04-22T15:43:08.088Z,1.97
2018-04-22T15:45:35.699Z,2.73
2018-04-22T15:48:03.358Z,3.20
2018-04-22T15:50:30.986Z,2.37
2018-04-22T15:52:58.646Z,2.20
2018-04-22T15:55:26.259Z,2.70
2018-04-22T15:57:53.914Z,2.53
2018-04-22T16:00:21.515Z,2.50
2018-04-22T16:02:49.179Z,2.37
2018-04-22T16:05:16.795Z,1.97
2018-04-22T16:07:44.441Z,2.10
2018-04-22T16:10:12.059Z,2.03
2018-04-22T16:12:39.714Z,1.90
2018-04-22T16:15:07.367Z,2.17
2018-04-22T16:17:35.018Z,2.03
2018-04-22T16:20:02.646Z,2.10
2018-04-22T16:22:30.263Z,1.87
2018-04-22T16:24:57.911Z,1.67
2018-04-22T16:27:25.510Z,1.97
2018-04-22T16:29:53.165Z,3.10
2018-04-22T16:32:20.774Z,1.90
2018-04-22T16:34:48.431Z,2.10
2018-04-22T16:37:16.038Z,2.00
2018-04-22T16:39:43.717Z,2.07
2018-04-22T16:42:11.355Z,1.93
2018-04-22T16:44:39.018Z,2.43
2018-04-22T16:47:06.633Z,2.40
2018-04-22T16:49:34.288Z,2.70
2018-04-22T16:52:01.906Z,1.83
2018-04-22T16:54:29.562Z,2.03
2018-04-22T16:56:57.187Z,2.03
2018-04-22T16:59:24.828Z,2.37
2018-04-22T17:01:52.443Z,2.30
2018-04-22T17:04:20.106Z,1.60
2018-04-22T17:06:47.717Z,2.40
2018-04-22T17:09:15.371Z,1.63
2018-04-22T17:11:43.026Z,2.07
2018-04-22T17:14:10.738Z,1.50
2018-04-22T17:16:38.355Z,2.23
2018-04-22T17:19:06.003Z,1.23
2018-04-22T17:21:33.609Z,1.87
2018-04-22T17:24:01.268Z,1.57
2018-04-22T17:26:28.872Z,1.53
2018-04-22T17:28:56.528Z,1.40
2018-04-22T17:31:24.263Z,2.50
2018-04-22T17:33:51.937Z,3.20
2018-04-22T17:36:19.547Z,2.10
2018-04-22T17:38:47.206Z,2.03
2018-04-22T17:41:14.814Z,2.03
2018-04-22T17:43:42.457Z,3.23
2018-04-22T17:46:10.078Z,1.90
2018-04-22T17:48:37.730Z,1.57
2018-04-22T17:51:05.334Z,2.90
2018-04-22T17:53:33.033Z,1.53
2018-04-22T17:56:00.694Z,1.73
2018-04-22T17:58:28.351Z,1.90
2018-04-22T18:00:55.968Z,1.63
2018-04-22T18:03:23.627Z,1.80
2018-04-22T18:05:51.238Z,1.33
2018-04-22T18:08:18.898Z,2.40
2018-04-22T18:10:46.508Z,1.80
2018-04-22T18:13:14.157Z,1.30
2018-04-22T18:15:41.767Z,2.77
2018-04-22T18:18:09.414Z,3.00
2018-04-22T18:20:37.020Z,1.63
2018-04-22T18:23:04.667Z,1.50
2018-04-22T18:25:32.318Z,2.40
2018-04-22T18:27:59.922Z,1.60
2018-04-22T18:30:27.569Z,1.30
2018-04-22T18:32:55.168Z,3.63
2018-04-22T18:35:22.828Z,2.30
2018-04-22T18:37:50.453Z,1.87
2018-04-22T18:40:18.101Z,1.37
2018-04-22T18:42:45.764Z,2.10
2018-04-22T18:45:13.414Z,2.03
2018-04-22T18:47:41.059Z,2.10
2018-04-22T18:50:08.706Z,2.90
2018-04-22T18:52:36.330Z,2.80
2018-04-22T18:55:03.991Z,3.37
2018-04-22T18:57:31.626Z,2.20
2018-04-22T18:59:59.262Z,1.77
2018-04-22T19:02:26.868Z,1.40
2018-04-22T19:04:54.519Z,3.40
2018-04-22T19:07:22.129Z,1.77
2018-04-22T19:09:49.780Z,2.57
2018-04-22T19:12:17.386Z,2.10
2018-04-22T19:14:45.063Z,2.07
2018-04-22T19:17:12.714Z,2.30
2018-04-22T19:19:40.361Z,2.70
2018-04-22T19:22:07.976Z,1.60
2018-04-22T19:24:35.618Z,1.50
2018-04-22T19:27:03.234Z,1.97
2018-04-22T19:29:30.887Z,2.93
2018-04-22T19:31:58.520Z,2.23
2018-04-22T19:34:26.201Z,3.50
2018-04-22T19:36:54.702Z,1.90
2018-04-22T19:39:22.357Z,2.10
2018-04-22T19:41:49.959Z,3.93
2018-04-22T19:44:17.609Z,1.70
2018-04-22T19:46:45.218Z,2.13
2018-04-22T19:49:12.873Z,2.00
2018-04-22T19:51:40.495Z,1.93
2018-04-22T19:54:08.199Z,1.83
2018-04-22T19:56:35.867Z,2.00
2018-04-22T19:59:03.514Z,3.27
2018-04-22T20:01:31.132Z,2.40
2018-04-22T20:03:58.781Z,2.37
2018-04-22T20:06:26.398Z,3.00
2018-04-22T20:08:54.055Z,2.40
2018-04-22T20:11:21.662Z,2.10
2018-04-22T20:13:49.307Z,1.80
2018-04-22T20:16:16.937Z,2.97
2018-04-22T20:18:44.583Z,2.67
2018-04-22T20:21:12.192Z,2.40
2018-04-22T20:23:39.870Z,2.50
2018-04-22T20:26:07.471Z,1.70
2018-04-22T20:28:35.138Z,1.80
2018-04-22T20:31:02.759Z,2.13
2018-04-22T20:33:30.369Z,3.40
2018-04-22T20:35:58.015Z,2.57
2018-04-22T20:38:25.629Z,1.97
2018-04-22T20:40:53.289Z,3.90
2018-04-22T20:43:20.898Z,3.73
2018-04-22T20:45:48.592Z,2.80
2018-04-22T20:48:16.278Z,1.93
2018-04-22T20:50:43.927Z,2.80
2018-04-22T20:53:11.606Z,2.00
2018-04-22T20:55:39.258Z,3.27
2018-04-22T20:58:06.885Z,1.97
2018-04-22T21:00:34.557Z,3.00
2018-04-22T21:03:02.179Z,3.00
2018-04-22T21:05:29.839Z,2.63
2018-04-22T21:07:57.463Z,2.40
2018-04-22T21:10:25.118Z,2.53
2018-04-22T21:12:52.729Z,2.27
2018-04-22T21:15:20.378Z,2.30
2018-04-22T21:17:47.998Z,3.30
2018-04-22T21:20:15.658Z,2.13
2018-04-22T21:22:43.276Z,2.30
2018-04-22T21:25:10.945Z,2.80
2018-04-22T21:27:38.662Z,2.63
2018-04-22T21:30:06.375Z,2.70
2018-04-22T21:32:33.999Z,2.97
2018-04-22T21:35:01.687Z,2.10
2018-04-22T21:37:29.327Z,2.10
2018-04-22T21:39:56.990Z,3.83
2018-04-22T21:42:24.602Z,4.37
2018-04-22T21:44:52.259Z,2.23
2018-04-22T21:47:19.870Z,3.37
2018-04-22T21:49:47.666Z,2.27
2018-04-22T21:52:15.288Z,3.70
2018-04-22T21:54:42.961Z,3.00
2018-04-22T21:57:10.583Z,3.10
2018-04-22T21:59:38.266Z,3.13
2018-04-22T22:02:05.886Z,2.80
2018-04-22T22:04:33.534Z,1.73
2018-04-22T22:07:01.161Z,2.30
2018-04-22T22:09:28.821Z,2.93
2018-04-22T22:11:56.451Z,2.60
2018-04-22T22:14:24.108Z,2.20
2018-04-22T22:16:51.717Z,2.90
2018-04-22T22:19:19.379Z,2.97
2018-04-22T22:21:46.990Z,2.00
2018-04-22T22:24:14.646Z,2.47
2018-04-22T22:26:42.246Z,3.27
2018-04-22T22:29:09.882Z,7.60
2018-04-22T22:31:37.490Z,3.50
2018-04-22T22:34:05.162Z,2.77
2018-04-22T22:36:32.782Z,2.73
2018-04-22T22:39:00.382Z,2.83
2018-04-22T22:41:28.043Z,3.03
2018-04-22T22:43:55.652Z,2.70
2018-04-22T22:46:23.429Z,2.40
2018-04-22T22:48:51.019Z,3.13
2018-04-22T22:51:18.662Z,3.83
2018-04-22T22:53:46.288Z,3.57
2018-04-22T22:56:13.955Z,2.93
2018-04-22T22:58:41.562Z,2.37
2018-04-22T23:01:09.227Z,2.57
2018-04-22T23:03:36.840Z,2.30
2018-04-22T23:06:04.492Z,3.17
2018-04-22T23:08:32.108Z,2.97
2018-04-22T23:10:59.798Z,3.10
2018-04-22T23:13:27.415Z,2.73
2018-04-22T23:15:55.077Z,2.77
2018-04-22T23:18:22.689Z,2.37
2018-04-22T23:20:50.343Z,2.27
2018-04-22T23:23:17.962Z,5.50
2018-04-22T23:25:45.615Z,2.43
2018-04-22T23:28:13.227Z,2.23
2018-04-22T23:30:40.879Z,2.70
2018-04-22T23:33:08.508Z,2.30
2018-04-22T23:35:36.166Z,2.87
2018-04-22T23:38:03.771Z,3.20
2018-04-22T23:40:31.430Z,3.67
2018-04-22T23:42:59.039Z,3.43
2018-04-22T23:45:26.699Z,2.60
2018-04-22T23:47:54.311Z,2.87
2018-04-22T23:50:21.962Z,2.43
2018-04-22T23:52:49.582Z,2.77
2018-04-22T23:55:17.242Z,4.80
2018-04-22T23:57:44.863Z,2.40
